sensor_id;sensor_type;location;lat;lon;timestamp;P1;durP1;ratioP1;P2;durP2;ratioP2
19505;SDS011;9894;50.852;-0.140;2023-08-21T00:02:22;0.10;;;0.10;;
19505;SDS011;9894;50.852;-0.140;2023-08-21T00:04:48;0.10;;;0.10;;
19505;SDS011;9894;50.852;-0.140;2023-08-21T00:07:14;0.20;;;0.20;;
19505;SDS011;9894;50.852;-0.140;2023-08-21T00:09:40;0.20;;;0.20;;
19505;SDS011;9894;50.852;-0.140;2023-08-21T00:12:06;0.40;;;0.40;;
19505;SDS011;9894;50.852;-0.140;2023-08-21T00:14:32;0.10;;;0.10;;
19505;SDS011;9894;50.852;-0.140;2023-08-21T00:16:58;0.20;;;0.20;;
19505;SDS011;9894;50.852;-0.140;2023-08-21T00:19:24;0.17;;;0.17;;
19505;SDS011;9894;50.852;-0.140;2023-08-21T00:21:50;0.10;;;0.10;;
19505;SDS011;9894;50.852;-0.140;2023-08-21T00:24:17;0.10;;;0.10;;
19505;SDS011;9894;50.852;-0.140;2023-08-21T00:26:43;0.20;;;0.20;;
19505;SDS011;9894;50.852;-0.140;2023-08-21T00:29:09;0.10;;;0.10;;
19505;SDS011;9894;50.852;-0.140;2023-08-21T00:31:35;0.10;;;0.10;;
19505;SDS011;9894;50.852;-0.140;2023-08-21T00:34:01;0.20;;;0.20;;
19505;SDS011;9894;50.852;-0.140;2023-08-21T00:36:27;0.20;;;0.20;;
19505;SDS011;9894;50.852;-0.140;2023-08-21T00:38:53;0.10;;;0.10;;
19505;SDS011;9894;50.852;-0.140;2023-08-21T00:41:19;0.10;;;0.10;;
19505;SDS011;9894;50.852;-0.140;2023-08-21T00:43:45;0.10;;;0.10;;
19505;SDS011;9894;50.852;-0.140;2023-08-21T00:46:11;0.10;;;0.10;;
19505;SDS011;9894;50.852;-0.140;2023-08-21T00:48:37;0.20;;;0.20;;
19505;SDS011;9894;50.852;-0.140;2023-08-21T00:51:03;0.10;;;0.10;;
19505;SDS011;9894;50.852;-0.140;2023-08-21T00:53:32;0.10;;;0.10;;
19505;SDS011;9894;50.852;-0.140;2023-08-21T00:55:58;0.10;;;0.10;;
19505;SDS011;9894;50.852;-0.140;2023-08-21T00:58:24;0.20;;;0.20;;
19505;SDS011;9894;50.852;-0.140;2023-08-21T01:00:51;0.32;;;0.32;;
19505;SDS011;9894;50.852;-0.140;2023-08-21T01:03:17;0.20;;;0.20;;
19505;SDS011;9894;50.852;-0.140;2023-08-21T01:05:44;0.15;;;0.15;;
19505;SDS011;9894;50.852;-0.140;2023-08-21T01:08:12;0.10;;;0.10;;
19505;SDS011;9894;50.852;-0.140;2023-08-21T01:13:40;0.20;;;0.20;;
19505;SDS011;9894;50.852;-0.140;2023-08-21T01:16:09;0.80;;;0.57;;
19505;SDS011;9894;50.852;-0.140;2023-08-21T01:18:36;0.20;;;0.20;;
19505;SDS011;9894;50.852;-0.140;2023-08-21T01:21:03;0.20;;;0.20;;
19505;SDS011;9894;50.852;-0.140;2023-08-21T01:25:56;0.20;;;0.20;;
19505;SDS011;9894;50.852;-0.140;2023-08-21T01:28:22;0.10;;;0.10;;
19505;SDS011;9894;50.852;-0.140;2023-08-21T01:30:48;0.20;;;0.20;;
19505;SDS011;9894;50.852;-0.140;2023-08-21T01:33:15;0.10;;;0.10;;
19505;SDS011;9894;50.852;-0.140;2023-08-21T01:35:42;0.20;;;0.20;;
19505;SDS011;9894;50.852;-0.140;2023-08-21T01:38:11;0.20;;;0.20;;
19505;SDS011;9894;50.852;-0.140;2023-08-21T01:40:38;0.20;;;0.20;;
19505;SDS011;9894;50.852;-0.140;2023-08-21T01:43:05;0.10;;;0.10;;
19505;SDS011;9894;50.852;-0.140;2023-08-21T01:45:32;0.10;;;0.10;;
19505;SDS011;9894;50.852;-0.140;2023-08-21T01:47:58;0.10;;;0.10;;
19505;SDS011;9894;50.852;-0.140;2023-08-21T01:50:24;0.20;;;0.20;;
19505;SDS011;9894;50.852;-0.140;2023-08-21T01:52:50;0.20;;;0.20;;
19505;SDS011;9894;50.852;-0.140;2023-08-21T01:55:16;0.20;;;0.20;;
19505;SDS011;9894;50.852;-0.140;2023-08-21T01:57:42;0.20;;;0.20;;
19505;SDS011;9894;50.852;-0.140;2023-08-21T02:00:09;0.20;;;0.20;;
19505;SDS011;9894;50.852;-0.140;2023-08-21T02:02:35;0.20;;;0.20;;
19505;SDS011;9894;50.852;-0.140;2023-08-21T02:05:01;0.20;;;0.20;;
19505;SDS011;9894;50.852;-0.140;2023-08-21T02:07:28;0.20;;;0.20;;
19505;SDS011;9894;50.852;-0.140;2023-08-21T02:09:54;0.20;;;0.20;;
19505;SDS011;9894;50.852;-0.140;2023-08-21T02:12:21;0.20;;;0.20;;
19505;SDS011;9894;50.852;-0.140;2023-08-21T02:14:47;0.20;;;0.20;;
19505;SDS011;9894;50.852;-0.140;2023-08-21T02:17:13;0.30;;;0.30;;
19505;SDS011;9894;50.852;-0.140;2023-08-21T02:19:39;0.20;;;0.20;;
19505;SDS011;9894;50.852;-0.140;2023-08-21T02:22:05;0.20;;;0.20;;
19505;SDS011;9894;50.852;-0.140;2023-08-21T02:24:32;0.20;;;0.20;;
19505;SDS011;9894;50.852;-0.140;2023-08-21T02:27:04;0.20;;;0.20;;
19505;SDS011;9894;50.852;-0.140;2023-08-21T02:29:30;0.20;;;0.20;;
19505;SDS011;9894;50.852;-0.140;2023-08-21T02:31:56;0.30;;;0.30;;
19505;SDS011;9894;50.852;-0.140;2023-08-21T02:34:22;0.20;;;0.20;;
19505;SDS011;9894;50.852;-0.140;2023-08-21T02:36:48;0.20;;;0.20;;
19505;SDS011;9894;50.852;-0.140;2023-08-21T02:39:14;0.20;;;0.20;;
19505;SDS011;9894;50.852;-0.140;2023-08-21T02:41:40;0.20;;;0.20;;
19505;SDS011;9894;50.852;-0.140;2023-08-21T02:44:06;0.20;;;0.20;;
19505;SDS011;9894;50.852;-0.140;2023-08-21T02:46:32;0.30;;;0.30;;
19505;SDS011;9894;50.852;-0.140;2023-08-21T02:49:00;0.20;;;0.20;;
19505;SDS011;9894;50.852;-0.140;2023-08-21T02:51:26;0.20;;;0.20;;
19505;SDS011;9894;50.852;-0.140;2023-08-21T02:53:52;0.30;;;0.30;;
19505;SDS011;9894;50.852;-0.140;2023-08-21T02:56:18;0.30;;;0.30;;
19505;SDS011;9894;50.852;-0.140;2023-08-21T02:58:44;0.20;;;0.20;;
19505;SDS011;9894;50.852;-0.140;2023-08-21T03:01:10;0.20;;;0.20;;
19505;SDS011;9894;50.852;-0.140;2023-08-21T03:03:36;0.20;;;0.20;;
19505;SDS011;9894;50.852;-0.140;2023-08-21T03:06:03;0.20;;;0.20;;
19505;SDS011;9894;50.852;-0.140;2023-08-21T03:08:29;0.30;;;0.30;;
19505;SDS011;9894;50.852;-0.140;2023-08-21T03:10:55;0.20;;;0.20;;
19505;SDS011;9894;50.852;-0.140;2023-08-21T03:13:21;0.20;;;0.20;;
19505;SDS011;9894;50.852;-0.140;2023-08-21T03:15:47;0.20;;;0.20;;
19505;SDS011;9894;50.852;-0.140;2023-08-21T03:18:13;0.20;;;0.20;;
19505;SDS011;9894;50.852;-0.140;2023-08-21T03:20:44;0.75;;;0.75;;
19505;SDS011;9894;50.852;-0.140;2023-08-21T03:23:10;0.30;;;0.30;;
19505;SDS011;9894;50.852;-0.140;2023-08-21T03:25:37;0.30;;;0.30;;
19505;SDS011;9894;50.852;-0.140;2023-08-21T03:28:03;0.20;;;0.20;;
19505;SDS011;9894;50.852;-0.140;2023-08-21T03:30:29;0.57;;;0.57;;
19505;SDS011;9894;50.852;-0.140;2023-08-21T03:32:55;0.30;;;0.30;;
19505;SDS011;9894;50.852;-0.140;2023-08-21T03:35:21;0.20;;;0.20;;
19505;SDS011;9894;50.852;-0.140;2023-08-21T03:37:47;0.30;;;0.30;;
19505;SDS011;9894;50.852;-0.140;2023-08-21T03:40:13;0.20;;;0.20;;
19505;SDS011;9894;50.852;-0.140;2023-08-21T03:42:39;0.20;;;0.20;;
19505;SDS011;9894;50.852;-0.140;2023-08-21T03:45:06;0.30;;;0.30;;
19505;SDS011;9894;50.852;-0.140;2023-08-21T03:47:32;0.30;;;0.30;;
19505;SDS011;9894;50.852;-0.140;2023-08-21T03:49:58;0.20;;;0.20;;
19505;SDS011;9894;50.852;-0.140;2023-08-21T03:52:24;0.20;;;0.20;;
19505;SDS011;9894;50.852;-0.140;2023-08-21T03:54:50;0.20;;;0.20;;
19505;SDS011;9894;50.852;-0.140;2023-08-21T03:57:16;0.28;;;0.28;;
19505;SDS011;9894;50.852;-0.140;2023-08-21T03:59:42;0.30;;;0.30;;
19505;SDS011;9894;50.852;-0.140;2023-08-21T04:02:08;0.30;;;0.30;;
19505;SDS011;9894;50.852;-0.140;2023-08-21T04:04:35;0.30;;;0.30;;
19505;SDS011;9894;50.852;-0.140;2023-08-21T04:07:01;0.30;;;0.30;;
19505;SDS011;9894;50.852;-0.140;2023-08-21T04:09:27;0.30;;;0.30;;
19505;SDS011;9894;50.852;-0.140;2023-08-21T04:11:53;0.20;;;0.20;;
19505;SDS011;9894;50.852;-0.140;2023-08-21T04:14:19;0.20;;;0.20;;
19505;SDS011;9894;50.852;-0.140;2023-08-21T04:16:45;0.20;;;0.20;;
19505;SDS011;9894;50.852;-0.140;2023-08-21T04:19:11;0.30;;;0.30;;
19505;SDS011;9894;50.852;-0.140;2023-08-21T04:21:37;0.30;;;0.30;;
19505;SDS011;9894;50.852;-0.140;2023-08-21T04:24:03;0.30;;;0.30;;
19505;SDS011;9894;50.852;-0.140;2023-08-21T04:26:29;0.20;;;0.20;;
19505;SDS011;9894;50.852;-0.140;2023-08-21T04:28:56;0.60;;;0.60;;
19505;SDS011;9894;50.852;-0.140;2023-08-21T04:31:22;0.20;;;0.20;;
19505;SDS011;9894;50.852;-0.140;2023-08-21T04:33:48;0.30;;;0.30;;
19505;SDS011;9894;50.852;-0.140;2023-08-21T04:36:15;0.20;;;0.20;;
19505;SDS011;9894;50.852;-0.140;2023-08-21T04:38:41;0.30;;;0.30;;
19505;SDS011;9894;50.852;-0.140;2023-08-21T04:41:08;0.20;;;0.20;;
19505;SDS011;9894;50.852;-0.140;2023-08-21T04:43:34;0.20;;;0.20;;
19505;SDS011;9894;50.852;-0.140;2023-08-21T04:46:00;0.30;;;0.30;;
19505;SDS011;9894;50.852;-0.140;2023-08-21T04:48:26;0.25;;;0.25;;
19505;SDS011;9894;50.852;-0.140;2023-08-21T04:50:52;0.45;;;0.45;;
19505;SDS011;9894;50.852;-0.140;2023-08-21T04:53:18;0.38;;;0.38;;
19505;SDS011;9894;50.852;-0.140;2023-08-21T04:55:45;0.30;;;0.30;;
19505;SDS011;9894;50.852;-0.140;2023-08-21T04:58:11;0.20;;;0.20;;
19505;SDS011;9894;50.852;-0.140;2023-08-21T05:00:37;0.30;;;0.30;;
19505;SDS011;9894;50.852;-0.140;2023-08-21T05:03:03;1.00;;;0.90;;
19505;SDS011;9894;50.852;-0.140;2023-08-21T05:05:29;0.30;;;0.30;;
19505;SDS011;9894;50.852;-0.140;2023-08-21T05:07:55;0.30;;;0.30;;
19505;SDS011;9894;50.852;-0.140;2023-08-21T05:10:21;0.40;;;0.40;;
19505;SDS011;9894;50.852;-0.140;2023-08-21T05:12:48;0.30;;;0.30;;
19505;SDS011;9894;50.852;-0.140;2023-08-21T05:15:14;0.30;;;0.30;;
19505;SDS011;9894;50.852;-0.140;2023-08-21T05:17:40;0.20;;;0.20;;
19505;SDS011;9894;50.852;-0.140;2023-08-21T05:20:06;0.50;;;0.50;;
19505;SDS011;9894;50.852;-0.140;2023-08-21T05:22:32;0.30;;;0.30;;
19505;SDS011;9894;50.852;-0.140;2023-08-21T05:24:58;0.30;;;0.30;;
19505;SDS011;9894;50.852;-0.140;2023-08-21T05:27:24;0.30;;;0.30;;
19505;SDS011;9894;50.852;-0.140;2023-08-21T05:29:51;0.30;;;0.30;;
19505;SDS011;9894;50.852;-0.140;2023-08-21T05:32:17;0.30;;;0.30;;
19505;SDS011;9894;50.852;-0.140;2023-08-21T05:34:43;0.40;;;0.40;;
19505;SDS011;9894;50.852;-0.140;2023-08-21T05:37:10;0.50;;;0.50;;
19505;SDS011;9894;50.852;-0.140;2023-08-21T05:39:36;0.40;;;0.40;;
19505;SDS011;9894;50.852;-0.140;2023-08-21T05:42:02;0.30;;;0.30;;
19505;SDS011;9894;50.852;-0.140;2023-08-21T05:44:28;0.30;;;0.30;;
19505;SDS011;9894;50.852;-0.140;2023-08-21T05:46:54;0.40;;;0.40;;
19505;SDS011;9894;50.852;-0.140;2023-08-21T05:49:20;0.30;;;0.30;;
19505;SDS011;9894;50.852;-0.140;2023-08-21T05:51:46;0.30;;;0.30;;
19505;SDS011;9894;50.852;-0.140;2023-08-21T05:54:12;0.40;;;0.40;;
19505;SDS011;9894;50.852;-0.140;2023-08-21T05:56:38;0.40;;;0.40;;
19505;SDS011;9894;50.852;-0.140;2023-08-21T05:59:04;0.30;;;0.30;;
19505;SDS011;9894;50.852;-0.140;2023-08-21T06:01:31;3.30;;;0.82;;
19505;SDS011;9894;50.852;-0.140;2023-08-21T06:03:57;0.50;;;0.50;;
19505;SDS011;9894;50.852;-0.140;2023-08-21T06:06:23;0.40;;;0.40;;
19505;SDS011;9894;50.852;-0.140;2023-08-21T06:08:49;0.40;;;0.40;;
19505;SDS011;9894;50.852;-0.140;2023-08-21T06:11:15;0.30;;;0.30;;
19505;SDS011;9894;50.852;-0.140;2023-08-21T06:13:41;0.30;;;0.30;;
19505;SDS011;9894;50.852;-0.140;2023-08-21T06:16:08;0.40;;;0.40;;
19505;SDS011;9894;50.852;-0.140;2023-08-21T06:18:34;0.40;;;0.40;;
19505;SDS011;9894;50.852;-0.140;2023-08-21T06:21:00;0.40;;;0.40;;
19505;SDS011;9894;50.852;-0.140;2023-08-21T06:23:26;0.50;;;0.50;;
19505;SDS011;9894;50.852;-0.140;2023-08-21T06:25:52;0.55;;;0.55;;
19505;SDS011;9894;50.852;-0.140;2023-08-21T06:28:18;0.40;;;0.40;;
19505;SDS011;9894;50.852;-0.140;2023-08-21T06:30:44;0.40;;;0.40;;
19505;SDS011;9894;50.852;-0.140;2023-08-21T06:33:10;0.32;;;0.32;;
19505;SDS011;9894;50.852;-0.140;2023-08-21T06:35:37;0.40;;;0.40;;
19505;SDS011;9894;50.852;-0.140;2023-08-21T06:38:03;5.25;;;2.85;;
19505;SDS011;9894;50.852;-0.140;2023-08-21T06:40:29;0.40;;;0.40;;
19505;SDS011;9894;50.852;-0.140;2023-08-21T06:42:55;0.47;;;0.47;;
19505;SDS011;9894;50.852;-0.140;2023-08-21T06:45:22;0.40;;;0.40;;
19505;SDS011;9894;50.852;-0.140;2023-08-21T06:47:48;0.60;;;0.60;;
19505;SDS011;9894;50.852;-0.140;2023-08-21T06:50:15;0.60;;;0.60;;
19505;SDS011;9894;50.852;-0.140;2023-08-21T06:52:41;0.50;;;0.50;;
19505;SDS011;9894;50.852;-0.140;2023-08-21T06:55:08;0.50;;;0.50;;
19505;SDS011;9894;50.852;-0.140;2023-08-21T06:57:34;0.50;;;0.50;;
19505;SDS011;9894;50.852;-0.140;2023-08-21T07:00:03;0.68;;;0.68;;
19505;SDS011;9894;50.852;-0.140;2023-08-21T07:02:29;0.60;;;0.60;;
19505;SDS011;9894;50.852;-0.140;2023-08-21T07:04:55;0.70;;;0.70;;
19505;SDS011;9894;50.852;-0.140;2023-08-21T07:07:22;0.60;;;0.60;;
19505;SDS011;9894;50.852;-0.140;2023-08-21T07:09:49;0.50;;;0.50;;
19505;SDS011;9894;50.852;-0.140;2023-08-21T07:12:16;0.50;;;0.50;;
19505;SDS011;9894;50.852;-0.140;2023-08-21T07:14:42;0.60;;;0.60;;
19505;SDS011;9894;50.852;-0.140;2023-08-21T07:17:08;7.57;;;1.90;;
19505;SDS011;9894;50.852;-0.140;2023-08-21T07:19:34;0.50;;;0.50;;
19505;SDS011;9894;50.852;-0.140;2023-08-21T07:22:00;0.70;;;0.70;;
19505;SDS011;9894;50.852;-0.140;2023-08-21T07:24:26;0.68;;;0.68;;
19505;SDS011;9894;50.852;-0.140;2023-08-21T07:26:53;1.23;;;1.13;;
19505;SDS011;9894;50.852;-0.140;2023-08-21T07:29:19;0.50;;;0.50;;
19505;SDS011;9894;50.852;-0.140;2023-08-21T07:31:45;0.60;;;0.60;;
19505;SDS011;9894;50.852;-0.140;2023-08-21T07:34:11;0.60;;;0.60;;
19505;SDS011;9894;50.852;-0.140;2023-08-21T07:36:37;0.90;;;0.90;;
19505;SDS011;9894;50.852;-0.140;2023-08-21T07:39:03;0.70;;;0.70;;
19505;SDS011;9894;50.852;-0.140;2023-08-21T07:41:29;0.80;;;0.80;;
19505;SDS011;9894;50.852;-0.140;2023-08-21T07:43:55;0.65;;;0.65;;
19505;SDS011;9894;50.852;-0.140;2023-08-21T07:46:21;8.52;;;2.20;;
19505;SDS011;9894;50.852;-0.140;2023-08-21T07:48:49;0.80;;;0.80;;
19505;SDS011;9894;50.852;-0.140;2023-08-21T07:51:15;1.38;;;1.20;;
19505;SDS011;9894;50.852;-0.140;2023-08-21T07:53:41;0.80;;;0.80;;
19505;SDS011;9894;50.852;-0.140;2023-08-21T07:56:08;0.70;;;0.70;;
19505;SDS011;9894;50.852;-0.140;2023-08-21T07:58:34;0.60;;;0.60;;
19505;SDS011;9894;50.852;-0.140;2023-08-21T08:01:00;0.60;;;0.60;;
19505;SDS011;9894;50.852;-0.140;2023-08-21T08:03:26;0.70;;;0.70;;
19505;SDS011;9894;50.852;-0.140;2023-08-21T08:05:52;0.47;;;0.47;;
19505;SDS011;9894;50.852;-0.140;2023-08-21T08:08:18;0.70;;;0.70;;
19505;SDS011;9894;50.852;-0.140;2023-08-21T08:10:44;0.70;;;0.70;;
19505;SDS011;9894;50.852;-0.140;2023-08-21T08:13:10;1.00;;;1.00;;
19505;SDS011;9894;50.852;-0.140;2023-08-21T08:15:37;0.70;;;0.70;;
19505;SDS011;9894;50.852;-0.140;2023-08-21T08:18:03;1.10;;;1.10;;
19505;SDS011;9894;50.852;-0.140;2023-08-21T08:20:32;1.35;;;1.33;;
19505;SDS011;9894;50.852;-0.140;2023-08-21T08:22:58;0.90;;;0.90;;
19505;SDS011;9894;50.852;-0.140;2023-08-21T08:25:24;0.70;;;0.70;;
19505;SDS011;9894;50.852;-0.140;2023-08-21T08:27:51;0.80;;;0.80;;
19505;SDS011;9894;50.852;-0.140;2023-08-21T08:30:17;0.80;;;0.80;;
19505;SDS011;9894;50.852;-0.140;2023-08-21T08:32:43;0.80;;;0.80;;
19505;SDS011;9894;50.852;-0.140;2023-08-21T08:35:11;0.80;;;0.80;;
19505;SDS011;9894;50.852;-0.140;2023-08-21T08:37:38;1.10;;;1.10;;
19505;SDS011;9894;50.852;-0.140;2023-08-21T08:40:04;0.50;;;0.50;;
19505;SDS011;9894;50.852;-0.140;2023-08-21T08:42:31;0.73;;;0.73;;
19505;SDS011;9894;50.852;-0.140;2023-08-21T08:44:57;0.60;;;0.60;;
19505;SDS011;9894;50.852;-0.140;2023-08-21T08:47:28;0.60;;;0.60;;
19505;SDS011;9894;50.852;-0.140;2023-08-21T08:49:55;0.70;;;0.70;;
19505;SDS011;9894;50.852;-0.140;2023-08-21T08:52:21;0.70;;;0.70;;
19505;SDS011;9894;50.852;-0.140;2023-08-21T08:54:49;0.70;;;0.70;;
19505;SDS011;9894;50.852;-0.140;2023-08-21T08:57:15;0.90;;;0.90;;
19505;SDS011;9894;50.852;-0.140;2023-08-21T08:59:41;0.90;;;0.90;;
19505;SDS011;9894;50.852;-0.140;2023-08-21T09:02:07;1.00;;;1.00;;
19505;SDS011;9894;50.852;-0.140;2023-08-21T09:04:33;2.25;;;1.65;;
19505;SDS011;9894;50.852;-0.140;2023-08-21T09:07:09;1.30;;;1.30;;
19505;SDS011;9894;50.852;-0.140;2023-08-21T09:09:44;1.10;;;1.10;;
19505;SDS011;9894;50.852;-0.140;2023-08-21T09:12:11;1.20;;;1.20;;
19505;SDS011;9894;50.852;-0.140;2023-08-21T09:14:40;1.20;;;1.20;;
19505;SDS011;9894;50.852;-0.140;2023-08-21T09:17:07;1.35;;;1.35;;
19505;SDS011;9894;50.852;-0.140;2023-08-21T09:19:33;1.20;;;1.20;;
19505;SDS011;9894;50.852;-0.140;2023-08-21T09:22:33;2.65;;;1.90;;
19505;SDS011;9894;50.852;-0.140;2023-08-21T09:25:25;22.52;;;8.63;;
19505;SDS011;9894;50.852;-0.140;2023-08-21T09:27:45;1.20;;;1.20;;
19505;SDS011;9894;50.852;-0.140;2023-08-21T09:30:11;1.50;;;1.50;;
19505;SDS011;9894;50.852;-0.140;2023-08-21T09:32:54;1.10;;;1.10;;
19505;SDS011;9894;50.852;-0.140;2023-08-21T09:35:21;1.20;;;1.20;;
19505;SDS011;9894;50.852;-0.140;2023-08-21T09:37:47;1.20;;;1.20;;
19505;SDS011;9894;50.852;-0.140;2023-08-21T09:40:14;1.20;;;1.20;;
19505;SDS011;9894;50.852;-0.140;2023-08-21T09:42:41;1.20;;;1.20;;
19505;SDS011;9894;50.852;-0.140;2023-08-21T09:45:07;1.10;;;1.10;;
19505;SDS011;9894;50.852;-0.140;2023-08-21T09:47:34;1.30;;;1.30;;
19505;SDS011;9894;50.852;-0.140;2023-08-21T09:50:01;1.20;;;1.20;;
19505;SDS011;9894;50.852;-0.140;2023-08-21T09:52:27;1.20;;;1.20;;
19505;SDS011;9894;50.852;-0.140;2023-08-21T09:54:56;1.50;;;1.50;;
19505;SDS011;9894;50.852;-0.140;2023-08-21T09:57:23;1.50;;;1.50;;
19505;SDS011;9894;50.852;-0.140;2023-08-21T09:59:52;2.00;;;1.90;;
19505;SDS011;9894;50.852;-0.140;2023-08-21T10:02:20;2.30;;;2.20;;
19505;SDS011;9894;50.852;-0.140;2023-08-21T10:04:46;2.10;;;2.00;;
19505;SDS011;9894;50.852;-0.140;2023-08-21T10:07:20;2.35;;;2.25;;
19505;SDS011;9894;50.852;-0.140;2023-08-21T10:09:47;2.38;;;2.28;;
19505;SDS011;9894;50.852;-0.140;2023-08-21T10:12:14;2.50;;;2.40;;
19505;SDS011;9894;50.852;-0.140;2023-08-21T10:14:41;2.72;;;2.53;;
19505;SDS011;9894;50.852;-0.140;2023-08-21T10:17:07;2.10;;;2.00;;
19505;SDS011;9894;50.852;-0.140;2023-08-21T10:19:34;2.17;;;2.08;;
19505;SDS011;9894;50.852;-0.140;2023-08-21T10:22:00;2.10;;;2.00;;
19505;SDS011;9894;50.852;-0.140;2023-08-21T10:24:28;2.50;;;2.40;;
19505;SDS011;9894;50.852;-0.140;2023-08-21T10:26:59;2.40;;;2.30;;
19505;SDS011;9894;50.852;-0.140;2023-08-21T10:29:25;1.80;;;1.80;;
19505;SDS011;9894;50.852;-0.140;2023-08-21T10:32:04;4.97;;;4.47;;
19505;SDS011;9894;50.852;-0.140;2023-08-21T10:34:35;2.90;;;2.80;;
19505;SDS011;9894;50.852;-0.140;2023-08-21T10:39:29;3.10;;;2.90;;
19505;SDS011;9894;50.852;-0.140;2023-08-21T10:42:09;3.80;;;3.60;;
19505;SDS011;9894;50.852;-0.140;2023-08-21T10:49:40;4.35;;;4.15;;
19505;SDS011;9894;50.852;-0.140;2023-08-21T10:52:07;5.00;;;4.70;;
19505;SDS011;9894;50.852;-0.140;2023-08-21T10:54:50;6.25;;;5.85;;
19505;SDS011;9894;50.852;-0.140;2023-08-21T10:57:16;6.35;;;5.95;;
19505;SDS011;9894;50.852;-0.140;2023-08-21T11:02:39;6.90;;;6.50;;
19505;SDS011;9894;50.852;-0.140;2023-08-21T11:05:06;6.00;;;5.60;;
19505;SDS011;9894;50.852;-0.140;2023-08-21T11:07:39;5.57;;;5.28;;
19505;SDS011;9894;50.852;-0.140;2023-08-21T11:10:07;7.35;;;6.75;;
19505;SDS011;9894;50.852;-0.140;2023-08-21T11:12:36;6.53;;;6.13;;
19505;SDS011;9894;50.852;-0.140;2023-08-21T11:15:02;6.32;;;5.93;;
19505;SDS011;9894;50.852;-0.140;2023-08-21T11:17:29;7.50;;;7.00;;
19505;SDS011;9894;50.852;-0.140;2023-08-21T11:19:55;7.55;;;7.05;;
19505;SDS011;9894;50.852;-0.140;2023-08-21T11:22:28;7.38;;;6.88;;
19505;SDS011;9894;50.852;-0.140;2023-08-21T11:24:55;7.40;;;6.90;;
19505;SDS011;9894;50.852;-0.140;2023-08-21T11:27:21;8.85;;;8.25;;
19505;SDS011;9894;50.852;-0.140;2023-08-21T11:29:49;9.70;;;9.00;;
19505;SDS011;9894;50.852;-0.140;2023-08-21T11:32:16;9.55;;;8.90;;
19505;SDS011;9894;50.852;-0.140;2023-08-21T11:34:43;12.00;;;11.20;;
19505;SDS011;9894;50.852;-0.140;2023-08-21T11:37:12;9.90;;;9.20;;
19505;SDS011;9894;50.852;-0.140;2023-08-21T11:39:40;9.75;;;9.10;;
19505;SDS011;9894;50.852;-0.140;2023-08-21T11:42:13;11.05;;;10.25;;
19505;SDS011;9894;50.852;-0.140;2023-08-21T11:44:49;10.55;;;9.77;;
19505;SDS011;9894;50.852;-0.140;2023-08-21T11:47:16;11.82;;;10.93;;
19505;SDS011;9894;50.852;-0.140;2023-08-21T11:49:44;12.05;;;11.25;;
19505;SDS011;9894;50.852;-0.140;2023-08-21T11:52:12;13.70;;;12.80;;
19505;SDS011;9894;50.852;-0.140;2023-08-21T11:54:39;11.43;;;10.63;;
19505;SDS011;9894;50.852;-0.140;2023-08-21T11:57:11;14.40;;;13.40;;
19505;SDS011;9894;50.852;-0.140;2023-08-21T11:59:38;18.50;;;17.30;;
19505;SDS011;9894;50.852;-0.140;2023-08-21T12:02:13;19.23;;;17.95;;
19505;SDS011;9894;50.852;-0.140;2023-08-21T12:04:40;20.08;;;18.77;;
19505;SDS011;9894;50.852;-0.140;2023-08-21T12:07:06;20.77;;;19.38;;
19505;SDS011;9894;50.852;-0.140;2023-08-21T12:09:32;28.42;;;26.42;;
19505;SDS011;9894;50.852;-0.140;2023-08-21T12:11:58;21.98;;;20.58;;
19505;SDS011;9894;50.852;-0.140;2023-08-21T12:14:25;27.73;;;25.83;;
19505;SDS011;9894;50.852;-0.140;2023-08-21T12:16:51;26.80;;;25.00;;
19505;SDS011;9894;50.852;-0.140;2023-08-21T12:19:17;22.30;;;20.80;;
19505;SDS011;9894;50.852;-0.140;2023-08-21T12:21:44;22.08;;;20.58;;
19505;SDS011;9894;50.852;-0.140;2023-08-21T12:24:10;24.33;;;22.50;;
19505;SDS011;9894;50.852;-0.140;2023-08-21T12:26:36;25.27;;;23.58;;
19505;SDS011;9894;50.852;-0.140;2023-08-21T12:29:03;22.40;;;20.75;;
19505;SDS011;9894;50.852;-0.140;2023-08-21T12:31:29;23.33;;;21.83;;
19505;SDS011;9894;50.852;-0.140;2023-08-21T12:33:55;22.13;;;20.65;;
19505;SDS011;9894;50.852;-0.140;2023-08-21T12:36:21;16.13;;;15.10;;
19505;SDS011;9894;50.852;-0.140;2023-08-21T12:38:48;13.70;;;12.80;;
19505;SDS011;9894;50.852;-0.140;2023-08-21T12:41:14;13.32;;;12.43;;
19505;SDS011;9894;50.852;-0.140;2023-08-21T12:43:40;12.73;;;11.93;;
19505;SDS011;9894;50.852;-0.140;2023-08-21T12:46:06;12.48;;;11.57;;
19505;SDS011;9894;50.852;-0.140;2023-08-21T12:48:32;11.40;;;10.65;;
19505;SDS011;9894;50.852;-0.140;2023-08-21T12:51:05;10.02;;;9.32;;
19505;SDS011;9894;50.852;-0.140;2023-08-21T12:53:52;8.75;;;8.15;;
19505;SDS011;9894;50.852;-0.140;2023-08-21T12:56:38;10.15;;;9.45;;
19505;SDS011;9894;50.852;-0.140;2023-08-21T12:59:26;9.90;;;9.20;;
19505;SDS011;9894;50.852;-0.140;2023-08-21T13:02:16;10.00;;;9.30;;
19505;SDS011;9894;50.852;-0.140;2023-08-21T13:05:00;9.20;;;8.60;;
19505;SDS011;9894;50.852;-0.140;2023-08-21T13:07:46;8.85;;;7.50;;
19505;SDS011;9894;50.852;-0.140;2023-08-21T13:10:21;8.68;;;8.07;;
19505;SDS011;9894;50.852;-0.140;2023-08-21T13:13:04;8.80;;;8.20;;
19505;SDS011;9894;50.852;-0.140;2023-08-21T13:15:30;9.05;;;8.45;;
19505;SDS011;9894;50.852;-0.140;2023-08-21T13:17:57;9.00;;;8.40;;
19505;SDS011;9894;50.852;-0.140;2023-08-21T13:20:23;10.00;;;9.30;;
19505;SDS011;9894;50.852;-0.140;2023-08-21T13:22:50;8.80;;;8.20;;
19505;SDS011;9894;50.852;-0.140;2023-08-21T13:25:22;10.00;;;9.30;;
19505;SDS011;9894;50.852;-0.140;2023-08-21T13:27:52;9.02;;;8.43;;
19505;SDS011;9894;50.852;-0.140;2023-08-21T13:30:18;9.63;;;8.93;;
19505;SDS011;9894;50.852;-0.140;2023-08-21T13:32:45;9.80;;;9.10;;
19505;SDS011;9894;50.852;-0.140;2023-08-21T13:35:11;8.70;;;8.10;;
19505;SDS011;9894;50.852;-0.140;2023-08-21T13:37:38;10.43;;;9.00;;
19505;SDS011;9894;50.852;-0.140;2023-08-21T13:40:05;10.50;;;9.80;;
19505;SDS011;9894;50.852;-0.140;2023-08-21T13:42:39;9.70;;;9.05;;
19505;SDS011;9894;50.852;-0.140;2023-08-21T13:45:15;9.18;;;8.57;;
19505;SDS011;9894;50.852;-0.140;2023-08-21T13:47:42;9.98;;;9.27;;
19505;SDS011;9894;50.852;-0.140;2023-08-21T13:50:08;8.30;;;7.78;;
19505;SDS011;9894;50.852;-0.140;2023-08-21T13:52:35;10.38;;;9.68;;
19505;SDS011;9894;50.852;-0.140;2023-08-21T13:55:03;8.65;;;8.02;;
19505;SDS011;9894;50.852;-0.140;2023-08-21T13:57:30;9.30;;;8.70;;
19505;SDS011;9894;50.852;-0.140;2023-08-21T13:59:58;9.07;;;8.48;;
19505;SDS011;9894;50.852;-0.140;2023-08-21T14:02:24;12.35;;;8.63;;
19505;SDS011;9894;50.852;-0.140;2023-08-21T14:04:50;8.10;;;7.60;;
19505;SDS011;9894;50.852;-0.140;2023-08-21T14:07:16;8.57;;;7.97;;
19505;SDS011;9894;50.852;-0.140;2023-08-21T14:09:43;10.07;;;9.35;;
19505;SDS011;9894;50.852;-0.140;2023-08-21T14:12:09;8.48;;;7.90;;
19505;SDS011;9894;50.852;-0.140;2023-08-21T14:14:35;8.90;;;8.30;;
19505;SDS011;9894;50.852;-0.140;2023-08-21T14:17:02;8.68;;;8.07;;
19505;SDS011;9894;50.852;-0.140;2023-08-21T14:19:29;10.05;;;9.25;;
19505;SDS011;9894;50.852;-0.140;2023-08-21T14:21:56;9.07;;;8.38;;
19505;SDS011;9894;50.852;-0.140;2023-08-21T14:24:23;8.85;;;8.23;;
19505;SDS011;9894;50.852;-0.140;2023-08-21T14:26:49;8.00;;;7.50;;
19505;SDS011;9894;50.852;-0.140;2023-08-21T14:29:15;8.10;;;7.50;;
19505;SDS011;9894;50.852;-0.140;2023-08-21T14:31:41;7.90;;;7.40;;
19505;SDS011;9894;50.852;-0.140;2023-08-21T14:34:07;7.80;;;7.30;;
19505;SDS011;9894;50.852;-0.140;2023-08-21T14:36:33;7.55;;;7.05;;
19505;SDS011;9894;50.852;-0.140;2023-08-21T14:38:59;6.70;;;6.30;;
19505;SDS011;9894;50.852;-0.140;2023-08-21T14:41:26;7.20;;;6.70;;
19505;SDS011;9894;50.852;-0.140;2023-08-21T14:43:52;6.70;;;6.30;;
19505;SDS011;9894;50.852;-0.140;2023-08-21T14:46:18;7.85;;;7.35;;
19505;SDS011;9894;50.852;-0.140;2023-08-21T14:48:44;6.60;;;6.20;;
19505;SDS011;9894;50.852;-0.140;2023-08-21T14:51:10;7.38;;;6.88;;
19505;SDS011;9894;50.852;-0.140;2023-08-21T14:53:36;7.00;;;6.60;;
19505;SDS011;9894;50.852;-0.140;2023-08-21T14:56:02;6.80;;;6.40;;
19505;SDS011;9894;50.852;-0.140;2023-08-21T14:58:28;7.18;;;6.68;;
19505;SDS011;9894;50.852;-0.140;2023-08-21T15:00:54;11.65;;;7.07;;
19505;SDS011;9894;50.852;-0.140;2023-08-21T15:03:21;6.72;;;6.32;;